Time;durP1;ratioP1;P1;durP2;ratioP2;P2;SDS_P1;SDS_P2;PMS_P1;PMS_P2;Temp;Humidity;BMP_temperature;BMP_pressure;BME280_temperature;BME280_humidity;BME280_pressure;Samples;Min_cycle;Max_cycle;Signal;HPM_P1;HPM_P2
2023/08/09 00:02:22;;;;;;;3.80;2.40;;;17.10;98.00;;;;;;5010319;28;20884;-67
2023/08/09 00:04:49;;;;;;;2.93;2.30;;;17.10;98.00;;;;;;5011426;28;20813;-67
2023/08/09 00:07:16;;;;;;;6.03;3.00;;;17.10;98.00;;;;;;5011461;28;20455;-67
2023/08/09 00:09:43;;;;;;;3.40;2.50;;;17.10;98.00;;;;;;5011439;28;20858;-67
2023/08/09 00:12:10;;;;;;;2.93;2.40;;;17.00;98.00;;;;;;5011564;28;20452;-67
2023/08/09 00:14:38;;;;;;;3.27;2.30;;;17.00;98.00;;;;;;5011102;28;20467;-67
2023/08/09 00:17:05;;;;;;;3.50;2.23;;;17.00;98.00;;;;;;5011449;28;20452;-67
2023/08/09 00:19:32;;;;;;;4.10;2.40;;;17.00;98.00;;;;;;4994203;28;20455;-67
2023/08/09 00:22:01;;;;;;;3.17;2.40;;;17.00;98.00;;;;;;5011614;28;20490;-67
2023/08/09 00:24:28;;;;;;;4.37;2.57;;;16.90;98.00;;;;;;4994050;28;20878;-67
2023/08/09 00:26:55;;;;;;;3.23;2.30;;;17.00;98.00;;;;;;5011370;28;20459;-67
2023/08/09 00:29:22;;;;;;;3.87;2.47;;;17.00;98.00;;;;;;5011196;28;20482;-66
2023/08/09 00:31:51;;;;;;;4.73;2.40;;;17.00;98.00;;;;;;5011250;28;20493;-67
2023/08/09 00:34:19;;;;;;;3.77;2.30;;;16.90;98.00;;;;;;5011150;28;20463;-67
2023/08/09 00:36:47;;;;;;;2.90;2.17;;;17.00;98.00;;;;;;5009946;28;20451;-67
2023/08/09 00:39:16;;;;;;;4.00;2.33;;;17.10;98.00;;;;;;5011227;28;20452;-66
2023/08/09 00:41:43;;;;;;;4.37;2.77;;;17.20;98.00;;;;;;5010028;28;20460;-67
2023/08/09 00:44:11;;;;;;;4.50;2.63;;;17.20;98.00;;;;;;5011008;28;20491;-67
2023/08/09 00:46:38;;;;;;;4.10;2.77;;;17.10;98.00;;;;;;5012626;28;20463;-67
2023/08/09 00:49:07;;;;;;;3.40;2.40;;;17.10;98.00;;;;;;5014996;28;20458;-67
2023/08/09 00:51:34;;;;;;;3.47;2.40;;;17.00;98.00;;;;;;5014929;28;20467;-67
2023/08/09 00:54:01;;;;;;;5.97;2.70;;;17.00;98.00;;;;;;5015049;28;20949;-67
2023/08/09 00:56:29;;;;;;;4.53;2.70;;;17.00;98.00;;;;;;5014829;28;20459;-67
2023/08/09 00:58:56;;;;;;;5.37;3.00;;;17.00;98.00;;;;;;5014666;28;20458;-67
2023/08/09 01:01:23;;;;;;;2.80;2.40;;;16.90;98.00;;;;;;5014596;28;20456;-67
2023/08/09 01:03:50;;;;;;;7.57;2.63;;;16.80;98.00;;;;;;5014616;28;20491;-67
2023/08/09 01:06:26;;;;;;;11.73;2.90;;;16.70;98.00;;;;;;5014880;28;20861;-66
2023/08/09 01:09:02;;;;;;;4.60;2.60;;;16.70;98.00;;;;;;5014304;28;20485;-67
2023/08/09 01:11:41;;;;;;;3.33;2.50;;;16.70;98.00;;;;;;5014860;28;20847;-66
2023/08/09 01:14:09;;;;;;;3.60;2.77;;;16.70;98.00;;;;;;5014668;28;20464;-67
2023/08/09 01:16:38;;;;;;;3.97;2.30;;;16.80;98.00;;;;;;5014711;28;20859;-67
2023/08/09 01:19:11;;;;;;;4.10;2.60;;;16.80;98.00;;;;;;5014380;28;20534;-67
2023/08/09 01:21:46;;;;;;;4.07;2.67;;;16.80;98.00;;;;;;5014476;28;20487;-67
2023/08/09 01:24:15;;;;;;;8.40;3.00;;;16.70;98.00;;;;;;5014215;28;20486;-67
2023/08/09 01:26:42;;;;;;;4.07;2.50;;;16.60;98.00;;;;;;5012908;28;20486;-66
2023/08/09 01:29:09;;;;;;;3.93;2.70;;;16.60;98.00;;;;;;5014309;28;20459;-66
2023/08/09 01:31:37;;;;;;;3.07;2.37;;;16.60;98.00;;;;;;5014084;28;20444;-66
2023/08/09 01:34:06;;;;;;;3.27;2.63;;;16.60;98.00;;;;;;5014018;28;20837;-67
2023/08/09 01:36:36;;;;;;;3.30;2.53;;;16.50;98.00;;;;;;5014230;28;20527;-67
2023/08/09 01:39:10;;;;;;;3.40;2.50;;;16.40;98.00;;;;;;5013733;28;20451;-67
2023/08/09 01:41:42;;;;;;;4.40;2.70;;;16.40;98.00;;;;;;5014047;28;20448;-67
2023/08/09 01:44:11;;;;;;;3.93;2.67;;;16.40;98.00;;;;;;5013694;28;20487;-67
2023/08/09 01:46:40;;;;;;;11.13;2.40;;;16.40;98.00;;;;;;5013956;28;20828;-66
2023/08/09 01:49:09;;;;;;;4.37;2.53;;;16.40;98.00;;;;;;5013818;28;20494;-66
2023/08/09 01:51:37;;;;;;;5.90;2.60;;;16.30;98.00;;;;;;5013750;28;21037;-66
2023/08/09 01:54:04;;;;;;;3.80;2.53;;;16.30;98.00;;;;;;5013738;28;20455;-66
2023/08/09 01:56:31;;;;;;;3.37;2.67;;;16.30;98.00;;;;;;5012461;28;20505;-67
2023/08/09 01:59:00;;;;;;;4.77;2.57;;;16.20;98.00;;;;;;5012360;28;20464;-67
2023/08/09 02:01:27;;;;;;;4.30;2.67;;;16.20;98.00;;;;;;5013610;28;20463;-67
2023/08/09 02:03:55;;;;;;;3.70;2.93;;;16.20;98.00;;;;;;5012218;28;20475;-66
2023/08/09 02:06:22;;;;;;;4.60;2.80;;;16.30;98.00;;;;;;5012650;28;20455;-67
2023/08/09 02:08:50;;;;;;;3.93;3.17;;;16.40;98.00;;;;;;5013885;28;20463;-67
2023/08/09 02:11:17;;;;;;;3.77;2.50;;;16.50;98.00;;;;;;5014100;28;20460;-67
2023/08/09 02:13:44;;;;;;;4.70;2.73;;;16.50;98.00;;;;;;5013750;28;21094;-67
2023/08/09 02:16:13;;;;;;;2.60;2.40;;;16.70;98.00;;;;;;5013342;28;20459;-66
2023/08/09 02:18:40;;;;;;;3.63;2.60;;;16.60;98.00;;;;;;5013154;28;20456;-66
2023/08/09 02:21:07;;;;;;;2.90;2.20;;;16.60;98.00;;;;;;5013423;28;20452;-66
2023/08/09 02:23:34;;;;;;;3.50;2.30;;;16.60;98.00;;;;;;5014150;28;20451;-67
2023/08/09 02:26:01;;;;;;;5.37;2.40;;;16.50;98.00;;;;;;5014461;28;20528;-66
2023/08/09 02:28:28;;;;;;;3.37;2.60;;;16.40;98.00;;;;;;5013144;28;20468;-66
2023/08/09 02:30:56;;;;;;;3.53;2.47;;;16.30;98.00;;;;;;5013995;28;20455;-67
2023/08/09 02:33:25;;;;;;;4.33;2.67;;;16.30;98.00;;;;;;5014081;28;20550;-67
2023/08/09 02:35:54;;;;;;;3.33;2.23;;;16.20;98.00;;;;;;5012954;28;20459;-67
2023/08/09 02:38:21;;;;;;;3.93;2.50;;;16.20;98.00;;;;;;5012990;28;20506;-67
2023/08/09 02:40:49;;;;;;;3.53;2.43;;;16.20;98.00;;;;;;5012978;28;20498;-67
2023/08/09 02:43:16;;;;;;;2.67;2.17;;;16.20;98.00;;;;;;5012996;28;20455;-67
2023/08/09 02:45:44;;;;;;;4.27;2.83;;;16.10;98.00;;;;;;5012813;28;20578;-66
2023/08/09 02:48:12;;;;;;;6.90;2.40;;;16.10;98.00;;;;;;5012826;28;20451;-66
2023/08/09 02:50:42;;;;;;;7.73;2.63;;;16.00;98.00;;;;;;5012897;28;20471;-67
2023/08/09 02:53:09;;;;;;;3.03;2.20;;;16.20;98.00;;;;;;5012554;28;20937;-67
2023/08/09 02:55:36;;;;;;;3.30;2.47;;;16.30;98.00;;;;;;5012882;28;20459;-67
2023/08/09 02:58:05;;;;;;;2.80;2.20;;;16.30;98.00;;;;;;5012781;28;20491;-66
2023/08/09 03:00:33;;;;;;;4.37;2.90;;;16.20;98.00;;;;;;5012701;28;20513;-67
2023/08/09 03:03:04;;;;;;;5.00;2.43;;;16.10;98.00;;;;;;5012659;28;20969;-67
2023/08/09 03:05:32;;;;;;;4.27;2.63;;;16.20;98.00;;;;;;5011879;28;20857;-66
2023/08/09 03:08:01;;;;;;;3.43;2.50;;;16.20;98.00;;;;;;5012409;28;20483;-67
2023/08/09 03:10:28;;;;;;;3.47;2.43;;;16.20;98.00;;;;;;5012487;28;20851;-67
2023/08/09 03:12:55;;;;;;;4.23;2.90;;;16.30;98.00;;;;;;5012344;28;20459;-67
2023/08/09 03:15:23;;;;;;;4.23;2.73;;;16.20;98.00;;;;;;5010570;28;20460;-67
2023/08/09 03:17:50;;;;;;;3.73;2.33;;;16.20;98.00;;;;;;5011426;28;20447;-67
2023/08/09 03:20:18;;;;;;;2.80;2.20;;;16.20;98.00;;;;;;5011610;28;20455;-67
2023/08/09 03:22:48;;;;;;;3.50;2.40;;;16.10;98.00;;;;;;5011298;28;20506;-67
2023/08/09 03:25:17;;;;;;;4.30;2.60;;;16.10;98.00;;;;;;5011378;28;20491;-67
2023/08/09 03:27:44;;;;;;;6.83;4.30;;;16.30;98.00;;;;;;5011067;28;20462;-67
2023/08/09 03:30:13;;;;;;;4.87;2.80;;;16.20;98.00;;;;;;5011200;28;20567;-67
2023/08/09 03:32:40;;;;;;;3.73;2.50;;;16.10;98.00;;;;;;5011567;28;20452;-67
2023/08/09 03:35:10;;;;;;;4.20;2.50;;;16.20;98.00;;;;;;5011460;28;20452;-66
2023/08/09 03:37:38;;;;;;;3.40;2.43;;;16.20;98.00;;;;;;5011181;28;20506;-67
2023/08/09 03:40:12;;;;;;;5.60;2.57;;;16.20;98.00;;;;;;5011159;28;20478;-67
2023/08/09 03:42:40;;;;;;;4.37;2.47;;;16.20;98.00;;;;;;5011160;28;20822;-66
2023/08/09 03:45:08;;;;;;;4.43;2.60;;;16.30;98.00;;;;;;5011490;28;20487;-66
2023/08/09 03:47:36;;;;;;;4.23;2.50;;;16.30;98.00;;;;;;5011211;28;20455;-67
2023/08/09 03:50:04;;;;;;;2.80;2.30;;;16.30;98.00;;;;;;5010881;28;20455;-67
2023/08/09 03:52:31;;;;;;;3.00;2.30;;;16.30;98.00;;;;;;5011188;28;20448;-67
2023/08/09 03:54:59;;;;;;;4.97;2.60;;;16.30;98.00;;;;;;5011178;28;20874;-67
2023/08/09 03:57:27;;;;;;;3.67;2.30;;;16.20;98.00;;;;;;5011241;28;20458;-66
2023/08/09 03:59:55;;;;;;;6.50;2.80;;;16.20;98.00;;;;;;5011195;28;20510;-66
2023/08/09 04:02:22;;;;;;;3.00;2.50;;;16.30;98.00;;;;;;5011170;28;20948;-66
2023/08/09 04:04:50;;;;;;;3.80;2.40;;;16.30;98.00;;;;;;5010308;28;20471;-67
2023/08/09 04:07:20;;;;;;;4.93;2.80;;;16.30;98.00;;;;;;5009581;28;20938;-67
2023/08/09 04:09:47;;;;;;;4.37;2.80;;;16.30;98.00;;;;;;5011067;28;20452;-67
2023/08/09 04:12:14;;;;;;;3.63;2.40;;;16.30;98.00;;;;;;5009679;28;20775;-67
2023/08/09 04:16:30;;;;;;;4.50;2.40;;;16.20;98.00;;;;;;5129350;27;20625;-65
2023/08/09 04:18:58;;;;;;;4.10;2.37;;;16.20;98.00;;;;;;5108956;28;20504;-65
2023/08/09 04:21:25;;;;;;;3.13;2.60;;;16.20;98.00;;;;;;5108779;28;20444;-65
2023/08/09 04:23:52;;;;;;;3.90;2.37;;;16.20;98.00;;;;;;5109043;28;20486;-65
2023/08/09 04:26:19;;;;;;;3.93;2.47;;;16.30;98.00;;;;;;5109043;28;20505;-66
2023/08/09 04:28:46;;;;;;;3.23;2.20;;;16.20;98.00;;;;;;5109073;28;21032;-65
2023/08/09 04:31:14;;;;;;;6.83;2.63;;;16.00;98.00;;;;;;5090953;28;20482;-65
2023/08/09 04:33:49;;;;;;;4.23;2.87;;;16.00;98.00;;;;;;5108859;28;20490;-65
2023/08/09 04:36:17;;;;;;;3.27;2.40;;;16.10;98.00;;;;;;5109045;28;20508;-65
2023/08/09 04:38:44;;;;;;;4.10;2.60;;;16.10;98.00;;;;;;5153839;22;20482;-69
2023/08/09 04:41:11;;;;;;;3.30;2.50;;;16.10;98.00;;;;;;5068314;28;20502;-68
2023/08/09 04:43:42;;;;;;;3.30;2.53;;;16.40;98.00;;;;;;5050595;28;20448;-68
2023/08/09 04:46:10;;;;;;;4.33;2.60;;;16.40;98.00;;;;;;5068643;28;20466;-68
2023/08/09 04:48:38;;;;;;;5.80;3.03;;;16.40;98.00;;;;;;5068186;28;20449;-69
2023/08/09 04:51:08;;;;;;;4.50;3.00;;;16.40;98.00;;;;;;5068245;28;20483;-67
2023/08/09 04:53:36;;;;;;;4.30;2.50;;;16.40;98.00;;;;;;5068003;28;20946;-68
2023/08/09 04:56:04;;;;;;;4.63;2.93;;;16.30;98.00;;;;;;5067697;28;20480;-68
2023/08/09 04:58:31;;;;;;;3.20;2.47;;;16.40;98.00;;;;;;5067478;28;21002;-68
2023/08/09 05:00:58;;;;;;;4.70;2.70;;;16.40;98.00;;;;;;5067682;28;20465;-68
2023/08/09 05:03:26;;;;;;;5.13;2.80;;;16.40;98.00;;;;;;5067627;28;20456;-68
2023/08/09 05:05:54;;;;;;;4.67;2.77;;;16.40;98.00;;;;;;5067607;28;20456;-68
2023/08/09 05:08:23;;;;;;;5.43;2.90;;;16.20;98.00;;;;;;5067633;28;20453;-68
2023/08/09 05:10:50;;;;;;;3.67;2.70;;;16.30;98.00;;;;;;5067428;28;20489;-68
2023/08/09 05:13:17;;;;;;;4.93;2.40;;;16.30;98.00;;;;;;5067358;28;20450;-68
2023/08/09 05:15:44;;;;;;;4.50;2.60;;;16.50;98.00;;;;;;5067312;28;20484;-68
2023/08/09 05:18:11;;;;;;;4.83;2.40;;;16.50;98.00;;;;;;5067326;28;20503;-68
2023/08/09 05:20:38;;;;;;;4.27;2.70;;;16.40;98.00;;;;;;5067329;28;20461;-68
2023/08/09 05:23:05;;;;;;;5.40;2.50;;;16.40;98.00;;;;;;5066978;28;20522;-67
2023/08/09 05:25:34;;;;;;;3.20;2.53;;;16.30;98.00;;;;;;5067154;28;20460;-70
2023/08/09 05:28:02;;;;;;;7.00;2.60;;;16.20;98.00;;;;;;5053601;28;20476;-68
2023/08/09 05:30:29;;;;;;;3.80;2.60;;;16.20;98.00;;;;;;5053989;28;20450;-68
2023/08/09 05:32:58;;;;;;;3.83;2.77;;;16.30;98.00;;;;;;5053769;28;20461;-68
2023/08/09 05:35:26;;;;;;;4.57;2.50;;;16.40;98.00;;;;;;5053951;28;20482;-68
2023/08/09 05:37:54;;;;;;;3.13;2.57;;;16.50;98.00;;;;;;5053654;28;20458;-68
2023/08/09 05:40:21;;;;;;;3.70;2.53;;;16.60;98.00;;;;;;5054112;28;20453;-68
2023/08/09 05:42:49;;;;;;;3.10;2.30;;;16.80;98.00;;;;;;5053990;28;20453;-68
2023/08/09 05:45:16;;;;;;;4.60;2.50;;;16.90;98.00;;;;;;5053677;28;20464;-68
2023/08/09 05:47:44;;;;;;;3.67;2.50;;;16.90;98.00;;;;;;5053679;28;20464;-69
2023/08/09 05:50:11;;;;;;;5.37;2.60;;;16.90;98.00;;;;;;5053481;28;20449;-68
2023/08/09 05:52:38;;;;;;;3.53;2.37;;;17.00;98.00;;;;;;5053697;28;20449;-69
2023/08/09 05:55:07;;;;;;;4.63;2.70;;;17.00;98.00;;;;;;5053363;28;20568;-68
2023/08/09 05:57:36;;;;;;;4.47;2.50;;;17.10;98.00;;;;;;5053511;28;20460;-68
2023/08/09 06:00:06;;;;;;;3.20;2.20;;;17.10;98.00;;;;;;5053265;28;20540;-69
2023/08/09 06:02:33;;;;;;;4.23;2.50;;;17.10;98.00;;;;;;5053395;28;20851;-70
2023/08/09 06:05:01;;;;;;;2.83;2.30;;;17.20;98.00;;;;;;5035441;28;20499;-68
2023/08/09 06:07:28;;;;;;;4.77;2.57;;;17.30;98.00;;;;;;5053176;28;20450;-69
2023/08/09 06:09:56;;;;;;;2.50;1.90;;;17.30;98.00;;;;;;5053080;28;20540;-69
2023/08/09 06:12:23;;;;;;;4.37;2.27;;;17.20;98.00;;;;;;5053216;28;20461;-65
2023/08/09 06:14:50;;;;;;;2.97;2.17;;;17.20;98.00;;;;;;5052957;28;20459;-64
2023/08/09 06:17:18;;;;;;;2.57;2.00;;;17.20;98.00;;;;;;5053049;28;20457;-65
2023/08/09 06:19:45;;;;;;;3.27;2.13;;;17.30;98.00;;;;;;5053244;28;20450;-65
2023/08/09 06:22:12;;;;;;;3.57;2.40;;;17.40;98.00;;;;;;5052875;28;20490;-65
2023/08/09 06:24:39;;;;;;;3.20;2.20;;;17.50;98.00;;;;;;5052981;28;20511;-64
2023/08/09 06:27:06;;;;;;;3.40;2.40;;;17.50;98.00;;;;;;5052807;28;20450;-65
2023/08/09 06:29:33;;;;;;;3.40;2.30;;;17.50;98.00;;;;;;5053075;28;20838;-65
2023/08/09 06:32:00;;;;;;;2.73;2.00;;;17.60;98.00;;;;;;5052907;28;20477;-65
2023/08/09 06:34:30;;;;;;;2.97;2.27;;;17.60;98.00;;;;;;5053034;28;20456;-65
2023/08/09 06:36:58;;;;;;;3.63;2.37;;;17.80;98.00;;;;;;5052577;28;20517;-66
2023/08/09 06:39:25;;;;;;;4.10;2.07;;;17.80;98.00;;;;;;5051559;28;20457;-66
2023/08/09 06:41:52;;;;;;;2.30;2.00;;;17.80;98.00;;;;;;5052929;28;20822;-65
2023/08/09 06:44:19;;;;;;;3.57;2.20;;;17.80;98.00;;;;;;5052411;28;20458;-64
2023/08/09 06:46:46;;;;;;;4.33;2.10;;;17.80;98.00;;;;;;5052554;28;20449;-65
2023/08/09 06:49:13;;;;;;;2.33;1.90;;;17.90;98.00;;;;;;5052569;28;20827;-65
2023/08/09 06:51:42;;;;;;;6.47;2.00;;;17.90;98.00;;;;;;5051739;28;20449;-65
2023/08/09 06:54:09;;;;;;;3.00;2.10;;;18.00;98.00;;;;;;5052196;28;20921;-66
2023/08/09 06:56:36;;;;;;;3.07;2.40;;;18.00;98.00;;;;;;5034495;28;20491;-66
2023/08/09 06:59:04;;;;;;;2.60;2.30;;;18.20;98.00;;;;;;5052154;28;20515;-65
2023/08/09 07:01:31;;;;;;;4.80;2.20;;;18.30;98.00;;;;;;5051983;28;20450;-66
2023/08/09 07:04:00;;;;;;;6.00;2.30;;;18.40;98.00;;;;;;5051973;28;20458;-65
2023/08/09 07:06:28;;;;;;;2.90;2.20;;;18.50;98.00;;;;;;5052084;28;20456;-65
2023/08/09 07:08:56;;;;;;;3.13;2.37;;;18.40;98.00;;;;;;5034315;28;20445;-65
2023/08/09 07:11:23;;;;;;;2.93;2.30;;;18.40;98.00;;;;;;5052152;28;20456;-65
2023/08/09 07:13:50;;;;;;;3.27;2.40;;;18.40;98.00;;;;;;5051908;28;20539;-65
2023/08/09 07:16:17;;;;;;;3.17;2.27;;;18.40;98.00;;;;;;5051894;28;20485;-65
2023/08/09 07:18:44;;;;;;;3.90;2.40;;;18.40;98.00;;;;;;5051704;28;20454;-65
2023/08/09 07:21:11;;;;;;;3.50;2.23;;;18.40;98.00;;;;;;5034254;28;20462;-65
2023/08/09 07:23:38;;;;;;;3.00;2.07;;;18.40;98.00;;;;;;5034062;28;20875;-65
2023/08/09 07:26:07;;;;;;;3.50;2.60;;;18.40;98.00;;;;;;5051852;28;20441;-65
2023/08/09 07:28:34;;;;;;;3.80;2.40;;;18.40;98.00;;;;;;5051976;28;20449;-65
2023/08/09 07:31:01;;;;;;;3.30;2.10;;;18.40;98.00;;;;;;5051637;28;20454;-65
2023/08/09 07:33:28;;;;;;;3.20;2.10;;;18.30;98.00;;;;;;5051716;28;20763;-65
2023/08/09 07:35:56;;;;;;;3.53;2.10;;;18.40;98.00;;;;;;5051489;28;20477;-65
2023/08/09 07:38:23;;;;;;;3.03;2.20;;;18.40;98.00;;;;;;5051305;28;20481;-66
2023/08/09 07:40:50;;;;;;;2.57;2.03;;;18.40;98.00;;;;;;5033820;28;20458;-65
2023/08/09 07:43:24;;;;;;;4.77;2.80;;;18.50;98.00;;;;;;5051465;28;20465;-65
2023/08/09 07:45:51;;;;;;;3.90;2.20;;;18.60;98.00;;;;;;5033497;28;20977;-65
2023/08/09 07:48:18;;;;;;;3.80;2.30;;;18.80;98.00;;;;;;5050063;28;20932;-65
2023/08/09 07:50:46;;;;;;;8.33;2.20;;;19.00;98.00;;;;;;5051114;28;20453;-65
2023/08/09 07:53:13;;;;;;;4.80;1.90;;;19.10;98.00;;;;;;5033495;28;20445;-65
2023/08/09 07:55:41;;;;;;;4.37;2.07;;;19.20;98.00;;;;;;5051598;28;20814;-66
2023/08/09 07:58:08;;;;;;;2.63;2.13;;;19.20;98.00;;;;;;5051606;28;20850;-65
2023/08/09 08:00:36;;;;;;;7.53;2.30;;;19.30;98.00;;;;;;5051834;28;20811;-65
2023/08/09 08:03:04;;;;;;;2.67;1.90;;;19.50;98.00;;;;;;5060682;28;20445;-64
2023/08/09 08:05:31;;;;;;;3.17;2.20;;;19.60;98.00;;;;;;5072021;28;20480;-65
2023/08/09 08:07:58;;;;;;;3.23;2.17;;;19.70;98.00;;;;;;5051776;28;20477;-65
2023/08/09 08:10:26;;;;;;;3.50;1.93;;;19.70;98.00;;;;;;5051705;28;20990;-64
2023/08/09 08:12:53;;;;;;;2.43;1.97;;;19.70;98.00;;;;;;5051671;28;20461;-66
2023/08/09 08:15:20;;;;;;;3.00;2.23;;;19.70;98.00;;;;;;5051477;28;20511;-65
2023/08/09 08:17:51;;;;;;;3.23;2.30;;;19.90;98.00;;;;;;5050807;28;20453;-65
2023/08/09 08:20:20;;;;;;;2.70;2.10;;;19.90;98.00;;;;;;5052010;28;20472;-65
2023/08/09 08:22:50;;;;;;;3.40;2.23;;;20.00;98.00;;;;;;5051951;28;20772;-65
2023/08/09 08:25:19;;;;;;;3.33;2.10;;;20.00;98.00;;;;;;5051775;28;20476;-65
2023/08/09 08:27:49;;;;;;;3.40;2.33;;;20.00;98.00;;;;;;5051556;28;20549;-65
2023/08/09 08:30:19;;;;;;;3.73;2.50;;;20.10;98.00;;;;;;5051488;28;20446;-65
2023/08/09 08:32:46;;;;;;;6.03;2.50;;;20.10;98.00;;;;;;5051125;28;20451;-65
2023/08/09 08:35:19;;;;;;;4.90;2.30;;;20.20;98.00;;;;;;5050065;28;20496;-65
2023/08/09 08:37:47;;;;;;;3.80;2.57;;;20.30;98.00;;;;;;5050625;28;20481;-65
2023/08/09 08:40:19;;;;;;;3.83;2.30;;;20.40;98.00;;;;;;5050642;28;20477;-65
2023/08/09 08:42:46;;;;;;;8.60;2.83;;;20.50;98.00;;;;;;5050659;28;20458;-65
2023/08/09 08:45:15;;;;;;;3.00;2.07;;;20.60;98.00;;;;;;5050727;28;20859;-67
2023/08/09 08:47:45;;;;;;;2.87;2.10;;;20.60;98.00;;;;;;5050550;28;20485;-66
2023/08/09 08:50:25;;;;;;;4.00;2.40;;;20.30;98.00;;;;;;5050482;28;20515;-67
2023/08/09 08:52:53;;;;;;;2.97;1.93;;;20.20;98.00;;;;;;5032668;28;20969;-67
2023/08/09 08:55:24;;;;;;;3.13;2.10;;;20.20;98.00;;;;;;5050737;28;20880;-64
2023/08/09 08:57:51;;;;;;;3.57;2.50;;;20.20;98.00;;;;;;5050547;28;20517;-64
2023/08/09 09:00:20;;;;;;;3.40;2.40;;;20.30;98.00;;;;;;5050417;28;20449;-64
2023/08/09 09:02:48;;;;;;;3.20;2.20;;;20.30;98.00;;;;;;5053519;28;20832;-65
2023/08/09 09:05:17;;;;;;;3.40;2.20;;;20.10;98.00;;;;;;5054432;28;20830;-65
2023/08/09 09:07:46;;;;;;;4.87;2.50;;;20.10;98.00;;;;;;5054279;28;20461;-64
2023/08/09 09:10:14;;;;;;;3.90;2.37;;;20.10;98.00;;;;;;5054345;28;20453;-65
2023/08/09 09:12:41;;;;;;;3.17;2.30;;;19.90;98.00;;;;;;5054240;28;20866;-65
2023/08/09 09:15:09;;;;;;;3.33;2.30;;;19.90;98.00;;;;;;5054018;28;20584;-64
2023/08/09 09:17:41;;;;;;;5.57;2.40;;;19.80;98.00;;;;;;5054532;28;20562;-64
2023/08/09 09:20:15;;;;;;;2.90;2.23;;;19.70;98.00;;;;;;5054217;28;20457;-64
2023/08/09 09:22:43;;;;;;;3.20;2.00;;;19.70;98.00;;;;;;5054209;28;20536;-65
2023/08/09 09:25:11;;;;;;;3.93;2.27;;;19.60;98.00;;;;;;5036063;28;20515;-64
2023/08/09 09:27:42;;;;;;;3.53;2.30;;;19.60;98.00;;;;;;5053705;28;20947;-64
2023/08/09 09:30:13;;;;;;;3.70;2.40;;;19.70;98.00;;;;;;5053658;28;20829;-65
2023/08/09 09:32:41;;;;;;;3.27;2.23;;;19.70;98.00;;;;;;5053757;28;20570;-64
2023/08/09 09:35:11;;;;;;;2.67;2.00;;;19.70;98.00;;;;;;5054152;28;20488;-66
2023/08/09 09:37:38;;;;;;;4.00;2.27;;;19.80;98.00;;;;;;5054470;28;20531;-65
2023/08/09 09:40:10;;;;;;;5.23;2.73;;;19.80;98.00;;;;;;5054072;28;20466;-64
2023/08/09 09:42:37;;;;;;;9.50;2.70;;;19.90;98.00;;;;;;5054299;28;20541;-64
2023/08/09 09:45:07;;;;;;;10.17;2.93;;;19.90;98.00;;;;;;5054178;28;20446;-64
2023/08/09 09:47:38;;;;;;;3.20;2.40;;;19.90;98.00;;;;;;5054032;28;20454;-65
2023/08/09 09:50:07;;;;;;;3.83;2.70;;;19.90;98.00;;;;;;5054110;28;20449;-64
2023/08/09 09:52:36;;;;;;;5.00;2.80;;;19.80;98.00;;;;;;5054024;28;20820;-65
2023/08/09 09:55:07;;;;;;;3.60;2.33;;;19.80;98.00;;;;;;5053883;28;20453;-64
2023/08/09 09:57:35;;;;;;;4.60;2.70;;;19.70;98.00;;;;;;5056115;28;20488;-66
2023/08/09 10:00:09;;;;;;;3.43;2.30;;;19.70;98.00;;;;;;5073200;28;20452;-65
2023/08/09 10:02:40;;;;;;;4.50;2.53;;;19.70;98.00;;;;;;5073368;28;20449;-64
2023/08/09 10:05:11;;;;;;;4.47;2.83;;;19.80;98.00;;;;;;5073135;28;20514;-65
2023/08/09 10:07:39;;;;;;;4.10;2.60;;;19.80;98.00;;;;;;5066240;28;20484;-65
2023/08/09 10:10:08;;;;;;;4.53;2.20;;;19.80;98.00;;;;;;5073806;28;20495;-65
2023/08/09 10:12:36;;;;;;;2.90;2.23;;;19.80;98.00;;;;;;5073924;28;20445;-65
2023/08/09 10:15:06;;;;;;;11.43;2.53;;;19.80;98.00;;;;;;5074040;28;20452;-64
2023/08/09 10:17:34;;;;;;;2.87;2.57;;;19.70;98.00;;;;;;5073745;28;20516;-64
2023/08/09 10:20:05;;;;;;;5.00;2.67;;;19.70;98.00;;;;;;5055851;28;20452;-64
2023/08/09 10:22:32;;;;;;;5.00;2.83;;;19.80;98.00;;;;;;5073852;28;20453;-64
2023/08/09 10:24:59;;;;;;;3.83;2.47;;;19.70;98.00;;;;;;5073437;28;20948;-63
2023/08/09 10:27:50;;;;;;;4.00;2.60;;;19.70;98.00;;;;;;5055835;28;20488;-65
2023/08/09 10:30:19;;;;;;;3.70;2.70;;;19.70;98.00;;;;;;5073635;28;20488;-66
2023/08/09 10:32:51;;;;;;;3.50;2.60;;;19.80;98.00;;;;;;5055967;28;20467;-64
2023/08/09 10:35:20;;;;;;;6.60;2.60;;;19.80;98.00;;;;;;5073283;28;20456;-64
2023/08/09 10:37:48;;;;;;;3.10;2.37;;;19.90;98.00;;;;;;5073236;28;21086;-64
2023/08/09 10:40:21;;;;;;;4.37;2.37;;;19.90;98.00;;;;;;5073332;28;20993;-66
2023/08/09 10:42:52;;;;;;;4.40;2.80;;;19.90;98.00;;;;;;5073455;28;20537;-65
2023/08/09 10:45:20;;;;;;;3.50;2.50;;;19.90;98.00;;;;;;5073285;28;20554;-65
2023/08/09 10:47:47;;;;;;;4.40;2.50;;;19.90;98.00;;;;;;5073400;28;20449;-64
2023/08/09 10:50:16;;;;;;;9.63;2.90;;;19.80;98.00;;;;;;5055548;28;20445;-66
2023/08/09 10:52:49;;;;;;;4.20;2.67;;;19.80;98.00;;;;;;5073362;28;20445;-64
2023/08/09 10:55:28;;;;;;;4.10;2.20;;;19.80;98.00;;;;;;5269792;22;20493;-64
2023/08/09 10:57:59;;;;;;;3.47;2.33;;;19.60;98.00;;;;;;5072412;28;20484;-70
2023/08/09 11:00:29;;;;;;;2.60;2.20;;;19.60;98.00;;;;;;5072951;28;20540;-67
2023/08/09 11:02:58;;;;;;;4.27;2.50;;;19.80;98.00;;;;;;5072920;28;20484;-66
2023/08/09 11:05:28;;;;;;;2.83;2.23;;;20.00;98.00;;;;;;5072896;28;20452;-66
2023/08/09 11:07:57;;;;;;;3.30;2.40;;;20.30;98.00;;;;;;5072691;28;20511;-65
2023/08/09 11:10:35;;;;;;;4.03;2.63;;;20.30;98.00;;;;;;5072940;28;20453;-65
2023/08/09 11:13:12;;;;;;;2.90;2.40;;;20.30;98.00;;;;;;5072645;28;20441;-65
2023/08/09 11:15:44;;;;;;;5.83;2.73;;;20.20;98.00;;;;;;5072310;28;20521;-65
2023/08/09 11:18:11;;;;;;;4.57;2.63;;;20.10;98.00;;;;;;5072611;28;20477;-66
2023/08/09 11:20:38;;;;;;;4.50;2.80;;;20.10;98.00;;;;;;5054825;28;20534;-66
2023/08/09 11:23:05;;;;;;;3.70;2.57;;;20.00;98.00;;;;;;5072492;28;20503;-65
2023/08/09 11:25:34;;;;;;;4.20;2.60;;;19.90;98.00;;;;;;5071820;28;20457;-66
2023/08/09 11:28:04;;;;;;;6.13;2.97;;;19.70;98.00;;;;;;5072407;28;20504;-65
2023/08/09 11:30:34;;;;;;;4.90;3.10;;;19.70;98.00;;;;;;5070204;28;20457;-66
2023/08/09 11:33:02;;;;;;;4.93;2.90;;;19.60;98.00;;;;;;5072264;28;20483;-65
2023/08/09 11:35:36;;;;;;;7.43;3.47;;;19.40;98.00;;;;;;5072207;28;20974;-65
2023/08/09 11:38:07;;;;;;;4.07;2.87;;;19.40;98.00;;;;;;5072280;28;20519;-66
2023/08/09 11:40:40;;;;;;;3.43;2.70;;;19.50;98.00;;;;;;5072276;28;20477;-65
2023/08/09 11:43:12;;;;;;;7.50;2.93;;;19.50;98.00;;;;;;5072233;28;20441;-66
2023/08/09 11:45:52;;;;;;;5.30;3.03;;;19.50;98.00;;;;;;5072172;28;20484;-65
2023/08/09 11:48:30;;;;;;;3.23;2.83;;;19.40;98.00;;;;;;5064427;28;20939;-66
2023/08/09 11:51:11;;;;;;;4.23;2.77;;;19.50;98.00;;;;;;5051438;28;20512;-66
2023/08/09 11:53:40;;;;;;;3.57;2.50;;;19.60;98.00;;;;;;5051260;28;20465;-66
2023/08/09 11:56:11;;;;;;;4.73;2.97;;;19.70;98.00;;;;;;5051132;28;20473;-66
2023/08/09 11:58:39;;;;;;;6.03;2.70;;;19.80;98.00;;;;;;5051270;28;20492;-66
2023/08/09 12:01:15;;;;;;;4.40;2.47;;;19.80;98.00;;;;;;5051270;28;20450;-66
2023/08/09 12:03:42;;;;;;;4.60;3.10;;;19.90;98.00;;;;;;5051405;28;20453;-66
2023/08/09 12:06:10;;;;;;;6.20;3.17;;;20.00;98.00;;;;;;5051608;28;20466;-66
2023/08/09 12:08:38;;;;;;;4.13;2.60;;;20.10;98.00;;;;;;5051528;28;20923;-66
2023/08/09 12:11:06;;;;;;;7.23;3.00;;;20.30;98.00;;;;;;5066507;28;20457;-66
2023/08/09 12:13:34;;;;;;;4.73;2.70;;;20.50;98.00;;;;;;5051160;28;20453;-66
2023/08/09 12:16:06;;;;;;;3.90;2.50;;;;;;;;;;5051122;28;20456;-66
2023/08/09 12:18:37;;;;;;;3.50;2.67;;;20.90;98.00;;;;;;5050994;28;20532;-66
2023/08/09 12:21:06;;;;;;;5.90;2.90;;;21.10;98.00;;;;;;5051177;28;20555;-67
2023/08/09 12:23:35;;;;;;;3.03;2.33;;;21.20;98.00;;;;;;5050990;28;20540;-66
2023/08/09 12:26:02;;;;;;;4.60;2.80;;;21.40;98.00;;;;;;5051044;28;20450;-66
2023/08/09 12:28:29;;;;;;;5.63;2.90;;;21.60;98.00;;;;;;5066422;28;20458;-66
2023/08/09 12:30:57;;;;;;;4.60;2.97;;;21.90;98.00;;;;;;5051092;28;20465;-66
2023/08/09 12:33:25;;;;;;;5.67;2.67;;;22.10;98.00;;;;;;5066617;28;20611;-66
2023/08/09 12:35:54;;;;;;;3.63;2.47;;;22.10;98.00;;;;;;5050842;28;20457;-66
2023/08/09 12:38:21;;;;;;;6.07;2.80;;;22.10;98.00;;;;;;5054833;28;20490;-65
2023/08/09 12:40:49;;;;;;;3.13;2.40;;;22.10;98.00;;;;;;5055039;28;20857;-66
2023/08/09 12:43:16;;;;;;;2.97;2.47;;;22.00;98.00;;;;;;5070331;28;20492;-66
2023/08/09 12:45:43;;;;;;;6.57;3.23;;;21.90;98.00;;;;;;5054802;28;20823;-66
2023/08/09 12:48:12;;;;;;;4.13;2.77;;;21.60;98.00;;;;;;5055021;28;20449;-65
2023/08/09 12:50:40;;;;;;;4.40;2.70;;;21.40;98.00;;;;;;5054680;28;20458;-66
2023/08/09 12:53:10;;;;;;;4.67;2.83;;;21.40;98.00;;;;;;5054703;28;20445;-66
2023/08/09 12:55:37;;;;;;;6.23;3.10;;;21.40;98.00;;;;;;5054628;28;20515;-65
2023/08/09 12:58:04;;;;;;;4.30;2.47;;;21.50;98.00;;;;;;5054547;28;20489;-64